Time;durP1;ratioP1;P1;durP2;ratioP2;P2;SDS_P1;SDS_P2;PMS_P1;PMS_P2;Temp;Humidity;BMP_temperature;BMP_pressure;BME280_temperature;BME280_humidity;BME280_pressure;Samples;Min_cycle;Max_cycle;Signal;HPM_P1;HPM_P2
2021/10/15 00:00:58;;;;;;;8.25;5.68;;;;;;;5.89;nan;100966.25;5029988;28;20041;-82
2021/10/15 00:03:23;;;;;;;7.03;5.50;;;;;;;5.97;nan;100964.91;5012623;28;20034;-81
2021/10/15 00:05:49;;;;;;;6.20;4.78;;;;;;;5.95;nan;100973.72;5029752;28;20137;-83
2021/10/15 00:08:14;;;;;;;8.20;5.28;;;;;;;5.97;nan;100963.09;5011820;28;20122;-81
2021/10/15 00:10:40;;;;;;;8.85;5.90;;;;;;;5.93;nan;100959.00;5030016;28;20155;-82
2021/10/15 00:13:05;;;;;;;7.07;5.68;;;;;;;5.82;nan;100958.94;5029791;28;20034;-83
2021/10/15 00:15:30;;;;;;;7.93;5.47;;;;;;;5.78;nan;100957.47;5029118;28;20040;-82
2021/10/15 00:17:56;;;;;;;6.78;5.20;;;;;;;5.79;nan;100957.34;5012375;28;20036;-81
2021/10/15 00:20:21;;;;;;;7.93;5.35;;;;;;;5.82;nan;100965.03;5013370;28;20048;-82
2021/10/15 00:22:46;;;;;;;7.15;5.22;;;;;;;5.85;nan;100950.84;5013356;28;20124;-81
2021/10/15 00:25:12;;;;;;;8.05;4.88;;;;;;;5.81;nan;100954.63;5030743;28;20044;-82
2021/10/15 00:27:37;;;;;;;8.10;5.32;;;;;;;5.83;nan;100957.97;5013804;28;20072;-81
2021/10/15 00:30:03;;;;;;;6.85;5.05;;;;;;;5.83;nan;100963.22;5030815;28;20414;-81
2021/10/15 00:32:28;;;;;;;8.07;5.85;;;;;;;5.83;nan;100950.13;5013636;28;20041;-82
2021/10/15 00:34:54;;;;;;;9.63;5.97;;;;;;;5.87;nan;100951.56;5031102;28;20049;-83
2021/10/15 00:37:19;;;;;;;9.80;5.32;;;;;;;5.80;nan;100945.94;5029944;28;20442;-81
2021/10/15 00:39:46;;;;;;;7.00;5.63;;;;;;;5.83;nan;100955.38;5032999;28;20041;-83
2021/10/15 00:42:12;;;;;;;8.73;6.03;;;;;;;5.79;nan;100946.03;5035341;28;20040;-83
2021/10/15 00:44:38;;;;;;;8.45;5.63;;;;;;;5.78;nan;100945.19;5031405;28;20042;-82
2021/10/15 00:47:04;;;;;;;9.07;5.90;;;;;;;5.80;nan;100948.56;5029363;28;20060;-81
2021/10/15 00:49:29;;;;;;;8.88;5.63;;;;;;;5.77;nan;100948.78;5029583;28;20030;-82
2021/10/15 00:51:55;;;;;;;9.15;6.25;;;;;;;5.77;nan;100940.03;5029528;28;20132;-81
2021/10/15 00:54:21;;;;;;;7.78;5.60;;;;;;;5.75;nan;100935.75;5013782;28;20029;-82
2021/10/15 00:56:48;;;;;;;7.43;5.68;;;;;;;5.73;nan;100936.81;5032938;28;20083;-83
2021/10/15 00:59:14;;;;;;;7.47;5.65;;;;;;;5.73;nan;100931.56;5033265;28;20459;-81
2021/10/15 01:01:39;;;;;;;9.55;5.93;;;;;;;5.66;nan;100939.03;5032918;28;20049;-83
2021/10/15 01:04:05;;;;;;;8.20;5.70;;;;;;;5.66;nan;100931.16;5032182;28;20030;-81
2021/10/15 01:06:32;;;;;;;7.72;5.78;;;;;;;5.64;nan;100926.97;5018737;28;20036;-82
2021/10/15 01:08:58;;;;;;;9.00;6.05;;;;;;;5.58;nan;100920.41;5033517;28;20033;-82
2021/10/15 01:11:24;;;;;;;7.75;5.80;;;;;;;5.58;nan;100925.66;5033286;28;20075;-81
2021/10/15 01:13:49;;;;;;;7.72;5.32;;;;;;;5.57;nan;100916.09;5032440;28;20034;-82
2021/10/15 01:16:16;;;;;;;7.40;5.38;;;;;;;5.54;nan;100916.31;5027372;28;20039;-81
2021/10/15 01:18:42;;;;;;;8.07;6.07;;;;;;;5.49;nan;100914.00;5032737;28;20120;-81
2021/10/15 01:21:10;;;;;;;9.65;6.65;;;;;;;5.42;nan;100911.94;5032329;28;20030;-83
2021/10/15 01:23:36;;;;;;;7.72;5.63;;;;;;;5.37;nan;100903.56;5032589;28;20030;-82
2021/10/15 01:26:02;;;;;;;9.73;6.18;;;;;;;5.29;nan;100904.09;5035865;28;20041;-83
2021/10/15 01:28:30;;;;;;;7.43;5.75;;;;;;;5.28;nan;100898.00;5035445;28;20112;-81
2021/10/15 01:30:56;;;;;;;7.85;5.47;;;;;;;5.24;nan;100893.97;5032162;28;20503;-81
2021/10/15 01:33:21;;;;;;;9.73;6.20;;;;;;;5.18;nan;100888.31;5038170;28;20174;-81
2021/10/15 01:35:47;;;;;;;6.57;5.35;;;;;;;5.15;nan;100889.34;5031790;28;20414;-82
2021/10/15 01:38:13;;;;;;;6.78;5.45;;;;;;;5.13;nan;100888.63;5013766;28;20106;-80
2021/10/15 01:40:39;;;;;;;8.80;6.32;;;;;;;5.08;nan;100880.25;5032248;28;20613;-81
2021/10/15 01:43:05;;;;;;;8.00;5.97;;;;;;;5.08;nan;100880.25;5031039;28;20136;-82
2021/10/15 01:45:32;;;;;;;7.85;5.72;;;;;;;5.05;nan;100873.44;5031033;28;20125;-83
2021/10/15 01:47:59;;;;;;;9.07;6.22;;;;;;;5.04;nan;100874.38;5034447;28;20036;-81
2021/10/15 01:50:26;;;;;;;8.25;6.43;;;;;;;5.09;nan;100868.81;5031624;28;20029;-82
2021/10/15 01:52:52;;;;;;;8.18;5.85;;;;;;;5.14;nan;100855.38;5031856;28;20041;-80
2021/10/15 01:55:18;;;;;;;8.25;5.75;;;;;;;5.16;nan;100864.81;5014428;28;20117;-82
2021/10/15 01:57:43;;;;;;;9.38;6.32;;;;;;;5.18;nan;100854.22;5014113;28;20033;-81
2021/10/15 02:00:11;;;;;;;7.60;5.35;;;;;;;5.20;nan;100860.19;5031399;28;20037;-81
2021/10/15 02:02:36;;;;;;;9.18;5.65;;;;;;;5.12;nan;100852.84;5031415;28;20087;-81
2021/10/15 02:05:03;;;;;;;8.63;6.10;;;;;;;5.14;nan;100855.38;5031403;28;20045;-80
2021/10/15 02:07:28;;;;;;;8.23;5.75;;;;;;;5.11;nan;100849.41;5031813;28;20048;-81
2021/10/15 02:09:53;;;;;;;7.20;5.90;;;;;;;5.04;nan;100852.56;5031746;28;20407;-82
2021/10/15 02:12:19;;;;;;;7.80;5.50;;;;;;;5.03;nan;100853.50;5030825;28;20034;-81
2021/10/15 02:14:44;;;;;;;9.02;6.00;;;;;;;4.98;nan;100848.59;5031518;28;20091;-81
2021/10/15 02:17:10;;;;;;;7.78;6.03;;;;;;;4.95;nan;100848.81;5031578;28;20038;-80
2021/10/15 02:19:36;;;;;;;8.13;6.10;;;;;;;4.92;nan;100842.94;5032003;28;20277;-81
2021/10/15 02:22:01;;;;;;;8.50;5.78;;;;;;;4.92;nan;100843.78;5031541;28;20120;-82
2021/10/15 02:24:27;;;;;;;7.10;5.50;;;;;;;4.89;nan;100838.78;5030526;28;20476;-81
2021/10/15 02:26:52;;;;;;;7.88;5.63;;;;;;;4.92;nan;100837.72;5031209;28;20065;-82
2021/10/15 02:29:17;;;;;;;10.60;6.38;;;;;;;4.96;nan;100837.38;5013506;28;20034;-83
2021/10/15 02:31:43;;;;;;;8.32;5.95;;;;;;;4.89;nan;100831.75;5029595;28;20042;-81
2021/10/15 02:34:09;;;;;;;9.30;5.70;;;;;;;4.82;nan;100825.25;5042587;28;20056;-82
2021/10/15 02:36:34;;;;;;;9.90;6.13;;;;;;;4.78;nan;100821.16;5030971;28;20036;-81
2021/10/15 02:38:59;;;;;;;9.98;6.00;;;;;;;4.74;nan;100824.09;5035653;28;20033;-82
2021/10/15 02:41:25;;;;;;;8.02;5.95;;;;;;;4.70;nan;100826.09;5041144;28;20483;-83
2021/10/15 02:43:50;;;;;;;7.28;5.70;;;;;;;4.67;nan;100828.91;5024150;28;20412;-82
2021/10/15 02:46:16;;;;;;;9.60;6.07;;;;;;;4.65;nan;100828.22;5018686;28;20038;-82
2021/10/15 02:48:43;;;;;;;9.20;6.43;;;;;;;4.64;nan;100826.53;5041631;28;20063;-82
2021/10/15 02:51:09;;;;;;;8.70;6.10;;;;;;;4.63;nan;100824.84;5041029;28;20061;-82
2021/10/15 02:53:34;;;;;;;8.20;5.80;;;;;;;4.61;nan;100824.13;5020011;28;20029;-84
2021/10/15 02:56:00;;;;;;;7.45;5.80;;;;;;;4.67;nan;100826.31;5038561;28;20038;-83
2021/10/15 02:58:25;;;;;;;8.55;6.07;;;;;;;4.71;nan;100819.91;5036713;28;20123;-82
2021/10/15 03:00:50;;;;;;;7.50;5.63;;;;;;;4.73;nan;100819.81;5015481;28;20095;-82
2021/10/15 03:03:16;;;;;;;9.65;6.22;;;;;;;4.74;nan;100821.47;5014720;28;20108;-82
2021/10/15 03:05:42;;;;;;;8.68;5.70;;;;;;;4.65;nan;100808.09;5032199;28;20454;-81
2021/10/15 03:08:08;;;;;;;7.82;5.80;;;;;;;4.67;nan;100810.59;5031991;28;20029;-82
2021/10/15 03:10:33;;;;;;;7.75;5.78;;;;;;;4.60;nan;100807.59;5027645;28;20030;-81
2021/10/15 03:12:59;;;;;;;8.45;5.43;;;;;;;4.58;nan;100806.00;5031723;28;20125;-81
2021/10/15 03:15:24;;;;;;;8.43;6.22;;;;;;;4.55;nan;100814.06;5018743;28;20491;-82
2021/10/15 03:17:49;;;;;;;7.38;5.60;;;;;;;4.49;nan;100817.13;5015064;28;20124;-82
2021/10/15 03:20:15;;;;;;;6.95;5.60;;;;;;;4.45;nan;100813.84;5034201;28;20037;-82
2021/10/15 03:22:40;;;;;;;6.75;5.32;;;;;;;4.41;nan;100804.53;5037416;28;20045;-83
2021/10/15 03:25:06;;;;;;;9.32;6.05;;;;;;;4.39;nan;100809.88;5035375;28;20065;-82
2021/10/15 03:27:31;;;;;;;8.02;6.00;;;;;;;4.41;nan;100815.00;5012732;28;20040;-82
2021/10/15 03:29:56;;;;;;;9.02;6.15;;;;;;;4.45;nan;100811.25;5012665;28;20491;-82
2021/10/15 03:32:22;;;;;;;9.75;5.80;;;;;;;4.53;nan;100813.31;5011813;28;20040;-81
2021/10/15 03:34:48;;;;;;;7.72;5.95;;;;;;;4.60;nan;100806.72;5026034;28;20056;-81
2021/10/15 03:37:13;;;;;;;10.32;7.35;;;;;;;4.65;nan;100810.72;5030146;28;20454;-82
2021/10/15 03:39:38;;;;;;;9.75;7.05;;;;;;;4.58;nan;100809.47;5030504;28;20068;-82
2021/10/15 03:42:03;;;;;;;9.98;7.25;;;;;;;4.67;nan;100810.59;5011953;28;20080;-82
2021/10/15 03:44:29;;;;;;;9.35;6.95;;;;;;;4.66;nan;100809.75;5028759;28;20080;-82
2021/10/15 03:46:54;;;;;;;9.00;6.80;;;;;;;4.61;nan;100811.84;5029898;28;20464;-82
2021/10/15 03:49:19;;;;;;;8.82;7.35;;;;;;;4.58;nan;100811.25;5045865;28;20071;-80
2021/10/15 03:51:45;;;;;;;8.32;6.82;;;;;;;4.52;nan;100809.03;5024231;28;20092;-82
2021/10/15 03:54:10;;;;;;;9.32;6.80;;;;;;;4.49;nan;100804.84;5011780;28;20080;-81
2021/10/15 03:56:35;;;;;;;8.88;6.43;;;;;;;4.43;nan;100811.38;5030206;28;20038;-82
2021/10/15 03:59:01;;;;;;;8.75;6.28;;;;;;;4.35;nan;100797.13;5011920;28;20037;-81
2021/10/15 04:01:26;;;;;;;7.90;6.03;;;;;;;4.40;nan;100808.09;5011815;28;20046;-80
2021/10/15 04:03:51;;;;;;;8.30;6.25;;;;;;;4.45;nan;100801.59;5029866;28;20046;-83
2021/10/15 04:06:17;;;;;;;9.00;6.00;;;;;;;4.46;nan;100808.53;5011633;28;20029;-81
2021/10/15 04:08:42;;;;;;;9.50;6.20;;;;;;;4.54;nan;100801.91;5012376;28;20053;-81
2021/10/15 04:11:07;;;;;;;8.93;6.20;;;;;;;4.50;nan;100808.31;5012197;28;20434;-81
2021/10/15 04:13:32;;;;;;;8.00;6.43;;;;;;;4.42;nan;100804.44;5029564;28;20394;-81
2021/10/15 04:16:01;;;;;;;7.93;6.05;;;;;;;4.50;nan;100795.22;5041951;28;20040;-82
2021/10/15 04:18:27;;;;;;;8.80;5.93;;;;;;;4.53;nan;100795.00;5028657;28;20049;-83
2021/10/15 04:20:52;;;;;;;8.25;5.85;;;;;;;4.52;nan;100798.56;5011834;28;20049;-83
2021/10/15 04:23:18;;;;;;;8.07;5.50;;;;;;;4.42;nan;100799.19;5012638;28;20038;-83
2021/10/15 04:25:44;;;;;;;9.68;5.93;;;;;;;4.35;nan;100792.72;5030404;28;20069;-81
2021/10/15 04:28:09;;;;;;;6.45;5.30;;;;;;;4.32;nan;100794.72;5012647;28;20025;-81
2021/10/15 04:30:34;;;;;;;7.65;5.78;;;;;;;4.41;nan;100788.81;5017072;28;20403;-82
2021/10/15 04:33:00;;;;;;;9.80;5.78;;;;;;;4.36;nan;100783.06;5037407;28;20033;-82
2021/10/15 04:35:25;;;;;;;8.45;5.45;;;;;;;4.34;nan;100784.94;5033972;28;20326;-83
2021/10/15 04:37:50;;;;;;;6.80;5.35;;;;;;;4.29;nan;100790.53;5033390;28;20030;-83
2021/10/15 04:40:15;;;;;;;7.78;5.55;;;;;;;4.25;nan;100784.66;5015132;28;20503;-83
2021/10/15 04:42:41;;;;;;;8.27;5.75;;;;;;;4.26;nan;100780.25;5015823;28;20245;-83
2021/10/15 04:45:07;;;;;;;7.57;5.55;;;;;;;4.34;nan;100784.94;5032595;28;20087;-81
2021/10/15 04:47:32;;;;;;;7.45;5.60;;;;;;;4.33;nan;100780.66;5034515;28;20037;-82
2021/10/15 04:49:57;;;;;;;8.38;5.45;;;;;;;4.31;nan;100778.16;5023467;28;20491;-83
2021/10/15 04:52:23;;;;;;;8.35;5.80;;;;;;;4.34;nan;100767.47;5015326;28;20337;-82
2021/10/15 04:54:48;;;;;;;8.90;5.60;;;;;;;4.39;nan;100765.38;5033353;28;20041;-82
2021/10/15 04:57:14;;;;;;;9.05;6.20;;;;;;;4.34;nan;100767.47;5033738;28;20032;-82
2021/10/15 04:59:39;;;;;;;8.40;5.93;;;;;;;4.40;nan;100772.28;5033911;28;20754;-83
2021/10/15 05:02:04;;;;;;;8.43;5.57;;;;;;;4.46;nan;100761.38;5015907;28;20038;-80
2021/10/15 05:04:30;;;;;;;7.43;5.47;;;;;;;4.47;nan;100755.19;5014729;28;20046;-82
2021/10/15 05:06:57;;;;;;;7.13;5.22;;;;;;;4.48;nan;100748.16;5033589;28;20034;-82
2021/10/15 05:09:33;;;;;;;7.65;5.60;;;;;;;4.41;nan;100752.16;5033664;28;20404;-82
2021/10/15 05:12:00;;;;;;;8.50;6.00;;;;;;;4.35;nan;100748.19;5033232;28;20406;-82
2021/10/15 05:14:26;;;;;;;8.75;5.80;;;;;;;4.34;nan;100746.53;5020865;28;20128;-82
2021/10/15 05:16:54;;;;;;;7.75;5.53;;;;;;;4.35;nan;100742.97;5032914;28;20120;-81
2021/10/15 05:19:20;;;;;;;9.10;5.70;;;;;;;4.28;nan;100731.25;5033268;28;20426;-83
2021/10/15 05:21:45;;;;;;;7.75;5.70;;;;;;;4.32;nan;100734.50;5015885;28;20061;-83
2021/10/15 05:24:11;;;;;;;8.40;5.75;;;;;;;4.26;nan;100735.75;5014591;28;20061;-81
2021/10/15 05:26:36;;;;;;;7.28;5.70;;;;;;;4.23;nan;100749.06;5013753;28;20598;-83
2021/10/15 05:29:02;;;;;;;8.18;6.13;;;;;;;4.20;nan;100749.28;5024029;28;20034;-82
2021/10/15 05:31:28;;;;;;;7.60;5.78;;;;;;;4.22;nan;100744.78;5016387;28;20049;-81
2021/10/15 05:33:53;;;;;;;7.63;5.68;;;;;;;4.30;nan;100742.44;5017034;28;20051;-82
2021/10/15 05:36:18;;;;;;;9.30;6.80;;;;;;;4.36;nan;100744.66;5017947;28;20033;-83
2021/10/15 05:38:44;;;;;;;10.50;6.00;;;;;;;4.39;nan;100748.84;5036005;28;20091;-83
2021/10/15 05:41:09;;;;;;;11.77;7.25;;;;;;;4.44;nan;100744.94;5021149;28;20116;-82
2021/10/15 05:43:34;;;;;;;9.02;6.07;;;;;;;4.41;nan;100746.94;5023100;28;20034;-81
2021/10/15 05:46:00;;;;;;;11.15;6.70;;;;;;;4.44;nan;100747.56;5043171;28;20038;-80
2021/10/15 05:48:25;;;;;;;8.57;6.03;;;;;;;4.48;nan;100742.94;5024775;28;20037;-81
2021/10/15 05:50:51;;;;;;;10.95;7.20;;;;;;;4.59;nan;100750.06;5038844;28;20045;-82
2021/10/15 05:53:19;;;;;;;13.93;8.20;;;;;;;4.67;nan;100745.97;5014710;28;20058;-82
2021/10/15 06:01:05;;;;;;;12.68;7.95;;;;;;;4.98;nan;100745.53;5039142;28;20106;-82
2021/10/15 06:03:31;;;;;;;11.90;8.07;;;;;;;5.05;nan;100747.63;5042861;28;20034;-81
2021/10/15 06:16:15;;;;;;;11.18;8.20;;;;;;;5.53;nan;100749.41;5029231;28;20044;-80
2021/10/15 06:18:41;;;;;;;14.57;7.72;;;;;;;5.63;nan;100746.94;5022324;28;20033;-81
2021/10/15 06:21:07;;;;;;;10.23;7.68;;;;;;;5.73;nan;100750.53;5013898;28;20075;-81
2021/10/15 06:23:33;;;;;;;11.77;7.72;;;;;;;5.79;nan;100752.66;5031316;28;20037;-82
2021/10/15 06:26:01;;;;;;;15.70;9.38;;;;;;;5.92;nan;100753.44;5030504;28;20084;-82
2021/10/15 06:28:27;;;;;;;14.38;9.15;;;;;;;6.02;nan;100756.22;5030688;28;20121;-80
2021/10/15 06:30:52;;;;;;;17.63;9.77;;;;;;;6.09;nan;100754.81;5013074;28;20590;-81
2021/10/15 06:33:18;;;;;;;13.63;9.55;;;;;;;6.26;nan;100763.19;5037332;28;20490;-81
2021/10/15 06:35:43;;;;;;;12.43;9.07;;;;;;;6.31;nan;100758.41;5027919;28;20376;-81
2021/10/15 06:38:08;;;;;;;17.80;9.88;;;;;;;6.44;nan;100756.50;5012296;28;20117;-81
2021/10/15 06:40:35;;;;;;;14.15;10.18;;;;;;;6.57;nan;100746.69;5031398;28;20033;-81
2021/10/15 06:43:01;;;;;;;13.07;9.52;;;;;;;6.70;nan;100754.47;5030534;28;20446;-80
2021/10/15 06:45:26;;;;;;;15.93;10.00;;;;;;;6.84;nan;100761.28;5030489;28;20065;-82
2021/10/15 06:47:51;;;;;;;14.95;10.30;;;;;;;7.06;nan;100752.50;5030864;28;20059;-80
2021/10/15 06:50:16;;;;;;;14.35;9.55;;;;;;;7.18;nan;100750.66;5030574;28;20033;-80
2021/10/15 06:52:48;;;;;;;16.45;10.93;;;;;;;7.32;nan;100760.06;5030972;28;20041;-81
2021/10/15 06:55:18;;;;;;;11.52;8.90;;;;;;;7.36;nan;100757.03;5029942;28;20033;-81
2021/10/15 06:57:44;;;;;;;13.55;9.40;;;;;;;7.60;nan;100763.88;5030237;28;20046;-81
2021/10/15 07:00:11;;;;;;;14.65;9.38;;;;;;;7.74;nan;100768.84;5012033;28;20037;-80
2021/10/15 07:02:37;;;;;;;13.32;9.00;;;;;;;7.93;nan;100773.41;5030263;28;20049;-80
2021/10/15 07:05:03;;;;;;;12.60;9.10;;;;;;;8.36;nan;100768.94;5012058;28;20046;-80
2021/10/15 07:07:28;;;;;;;10.75;8.15;;;;;;;8.60;nan;100771.28;5029431;28;20048;-81
2021/10/15 07:09:54;;;;;;;14.75;9.45;;;;;;;8.80;nan;100764.31;5012545;28;20033;-80
2021/10/15 07:12:19;;;;;;;11.98;8.43;;;;;;;8.70;nan;100770.38;5012504;28;20125;-81
2021/10/15 07:14:44;;;;;;;14.65;8.07;;;;;;;8.69;nan;100768.69;5020538;28;20136;-80
2021/10/15 07:17:10;;;;;;;12.43;7.65;;;;;;;8.63;nan;100766.59;5030646;28;20522;-80
2021/10/15 07:19:35;;;;;;;13.15;9.00;;;;;;;8.66;nan;100770.78;5029297;28;20036;-82
2021/10/15 07:22:00;;;;;;;12.30;8.52;;;;;;;8.57;nan;100764.50;5012091;28;20042;-81
2021/10/15 07:24:26;;;;;;;10.35;7.75;;;;;;;8.51;nan;100765.03;5026432;28;20052;-81
2021/10/15 07:26:51;;;;;;;13.02;8.48;;;;;;;8.53;nan;100762.25;5031525;28;20045;-80
2021/10/15 07:29:17;;;;;;;11.88;8.10;;;;;;;8.53;nan;100759.63;5028995;28;20056;-80
2021/10/15 07:31:42;;;;;;;16.92;9.63;;;;;;;8.50;nan;100766.00;5030062;28;20033;-80
2021/10/15 07:34:08;;;;;;;12.40;8.05;;;;;;;8.39;nan;100761.63;5011952;28;20395;-80
2021/10/15 07:36:34;;;;;;;14.57;9.10;;;;;;;8.50;nan;100763.34;5030381;28;20190;-81
2021/10/15 07:38:59;;;;;;;14.50;9.18;;;;;;;8.55;nan;100766.41;5030238;28;20044;-81
2021/10/15 07:41:25;;;;;;;14.40;9.75;;;;;;;8.63;nan;100765.78;5030568;28;20038;-81
2021/10/15 07:43:51;;;;;;;14.80;9.48;;;;;;;8.64;nan;100768.25;5011418;28;20111;-83
2021/10/15 07:46:17;;;;;;;14.77;9.10;;;;;;;8.75;nan;100762.06;5012031;28;20418;-81
2021/10/15 07:48:43;;;;;;;13.80;9.27;;;;;;;8.78;nan;100766.25;5016319;28;20040;-82
2021/10/15 07:51:08;;;;;;;13.38;9.90;;;;;;;8.83;nan;100762.22;5012848;28;20409;-81
2021/10/15 07:53:33;;;;;;;12.18;9.25;;;;;;;8.79;nan;100768.72;5027624;28;20064;-82
2021/10/15 07:55:59;;;;;;;13.00;9.30;;;;;;;8.90;nan;100770.44;5029668;28;20495;-83
2021/10/15 07:58:24;;;;;;;11.27;8.73;;;;;;;8.94;nan;100766.56;5029524;28;20052;-82
2021/10/15 08:00:49;;;;;;;13.90;8.55;;;;;;;9.00;nan;100760.72;5032429;28;20037;-81
2021/10/15 08:03:16;;;;;;;12.35;9.20;;;;;;;9.07;nan;100761.03;5029766;28;20059;-81
2021/10/15 08:05:41;;;;;;;11.25;8.57;;;;;;;9.20;nan;100766.03;5030091;28;20141;-83
2021/10/15 08:08:06;;;;;;;12.75;8.75;;;;;;;9.31;nan;100760.63;5028112;28;20057;-81
2021/10/15 08:10:31;;;;;;;11.02;7.90;;;;;;;9.44;nan;100765.63;5029121;28;20373;-81
2021/10/15 08:12:57;;;;;;;11.30;8.45;;;;;;;9.58;nan;100775.78;5029921;28;20042;-81
2021/10/15 08:15:24;;;;;;;14.45;9.02;;;;;;;9.72;nan;100783.28;5020876;28;20029;-84
2021/10/15 08:17:50;;;;;;;12.27;8.45;;;;;;;9.87;nan;100789.00;5013712;28;20503;-83
2021/10/15 08:20:17;;;;;;;11.88;7.65;;;;;;;10.01;nan;100803.56;5012887;28;20163;-83
2021/10/15 08:22:42;;;;;;;10.85;7.93;;;;;;;10.34;nan;100809.34;5031659;28;20049;-82
2021/10/15 08:25:08;;;;;;;10.07;7.93;;;;;;;11.36;nan;100795.22;5012980;28;20033;-81
2021/10/15 08:27:34;;;;;;;11.57;7.82;;;;;;;12.22;nan;100792.81;5013664;28;20080;-84
2021/10/15 08:30:01;;;;;;;12.98;7.68;;;;;;;13.02;nan;100802.34;5032456;28;20037;-82
2021/10/15 08:32:26;;;;;;;14.50;7.72;;;;;;;13.28;nan;100802.28;5031693;28;20057;-84
2021/10/15 08:34:52;;;;;;;9.88;7.07;;;;;;;13.42;nan;100806.09;5029534;28;20061;-83
2021/10/15 08:37:18;;;;;;;10.48;7.22;;;;;;;13.79;nan;100805.66;5019367;28;20030;-85
2021/10/15 08:39:43;;;;;;;9.25;7.05;;;;;;;13.96;nan;100809.13;5017095;28;20034;-83
2021/10/15 08:42:09;;;;;;;10.90;6.63;;;;;;;13.87;nan;100804.81;5035990;28;20402;-84
2021/10/15 08:44:37;;;;;;;10.00;7.20;;;;;;;13.42;nan;100796.34;5014723;28;20518;-86
2021/10/15 08:47:04;;;;;;;9.93;6.72;;;;;;;13.11;nan;100801.38;5032343;28;20036;-86
2021/10/15 08:49:30;;;;;;;9.88;7.00;;;;;;;12.38;nan;100796.56;5026172;28;20087;-84
2021/10/15 08:51:55;;;;;;;11.80;8.40;;;;;;;12.21;nan;100785.88;5006124;28;20030;-86
2021/10/15 08:54:21;;;;;;;9.05;6.70;;;;;;;11.68;nan;100792.91;5038053;28;20064;-85
2021/10/15 08:56:46;;;;;;;10.48;6.90;;;;;;;11.16;nan;100784.78;5030972;28;21152;-85
2021/10/15 08:59:15;;;;;;;8.70;6.60;;;;;;;11.12;nan;100788.69;5006542;28;20395;-85
2021/10/15 09:01:45;;;;;;;11.93;7.32;;;;;;;11.17;nan;100777.66;5007224;28;20048;-84
2021/10/15 09:04:16;;;;;;;10.93;7.38;;;;;;;11.25;nan;100789.19;5022700;28;20414;-83
2021/10/15 09:06:42;;;;;;;11.23;7.28;;;;;;;11.17;nan;100783.78;5022086;28;20048;-85
2021/10/15 09:09:08;;;;;;;10.52;7.30;;;;;;;11.02;nan;100788.75;5023747;28;20410;-84
2021/10/15 09:11:38;;;;;;;10.98;7.13;;;;;;;10.96;nan;100799.09;5007431;28;20033;-84
2021/10/15 09:14:24;;;;;;;9.40;6.93;;;;;;;10.87;nan;100803.47;5016162;28;20597;-83
2021/10/15 09:17:06;;;;;;;10.15;7.35;;;;;;;11.12;nan;100801.94;5016260;28;20042;-85
2021/10/15 09:19:36;;;;;;;10.50;7.15;;;;;;;11.13;nan;100802.75;5018393;28;20107;-83
2021/10/15 09:22:23;;;;;;;9.80;7.20;;;;;;;11.20;nan;100809.97;5031288;28;20026;-83
2021/10/15 09:24:53;;;;;;;12.30;6.95;;;;;;;11.35;nan;100806.81;5025183;28;20454;-82
2021/10/15 09:27:26;;;;;;;10.43;7.07;;;;;;;11.35;nan;100806.81;5032500;28;20033;-82
2021/10/15 09:30:05;;;;;;;10.55;6.90;;;;;;;11.17;nan;100804.13;5033753;28;20091;-82
2021/10/15 09:32:39;;;;;;;11.25;7.95;;;;;;;11.45;nan;100799.63;5032592;28;20411;-81
2021/10/15 09:35:06;;;;;;;10.00;7.18;;;;;;;11.39;nan;100803.72;5015405;28;20087;-81
2021/10/15 09:37:34;;;;;;;10.07;6.88;;;;;;;11.46;nan;100799.47;5032949;28;20136;-83
2021/10/15 09:40:09;;;;;;;11.00;6.97;;;;;;;11.55;nan;100805.69;5038838;28;20029;-82
2021/10/15 09:42:39;;;;;;;15.85;7.22;;;;;;;11.51;nan;100800.81;5033022;28;20080;-82
2021/10/15 09:45:16;;;;;;;13.23;6.63;;;;;;;11.55;nan;100799.56;5033330;28;20241;-83
2021/10/15 09:47:43;;;;;;;11.68;6.75;;;;;;;11.68;nan;100800.84;5014463;28;20053;-83
2021/10/15 09:50:10;;;;;;;8.90;6.13;;;;;;;11.63;nan;100792.53;5014731;28;20501;-82
2021/10/15 09:52:51;;;;;;;10.88;6.45;;;;;;;11.62;nan;100793.50;5033215;28;20494;-83
2021/10/15 09:55:16;;;;;;;10.63;6.53;;;;;;;11.72;nan;100789.94;5015397;28;20044;-82
2021/10/15 09:57:44;;;;;;;10.65;6.90;;;;;;;11.81;nan;100791.66;5015018;28;20418;-83
2021/10/15 10:00:18;;;;;;;10.95;6.85;;;;;;;11.94;nan;100784.19;5032801;28;20037;-83
2021/10/15 10:02:44;;;;;;;10.45;6.88;;;;;;;12.05;nan;100786.56;5016983;28;20045;-84
2021/10/15 10:05:15;;;;;;;9.45;6.72;;;;;;;12.06;nan;100793.56;5033585;28;20522;-83
2021/10/15 10:07:46;;;;;;;7.47;6.07;;;;;;;12.14;nan;100789.28;5033066;28;20518;-83
2021/10/15 10:10:14;;;;;;;9.57;6.70;;;;;;;12.20;nan;100791.31;5032440;28;20033;-84
2021/10/15 10:12:41;;;;;;;9.07;6.53;;;;;;;12.17;nan;100791.63;5031705;28;20067;-84
2021/10/15 10:15:09;;;;;;;8.95;6.45;;;;;;;12.20;nan;100780.69;5012190;28;20064;-83
2021/10/15 10:17:45;;;;;;;10.35;6.85;;;;;;;12.22;nan;100770.78;5026428;28;20117;-82
2021/10/15 10:20:16;;;;;;;10.65;7.20;;;;;;;12.25;nan;100767.81;5006837;28;20041;-82
2021/10/15 10:22:48;;;;;;;8.80;6.82;;;;;;;12.39;nan;100769.06;5026112;28;20041;-83
2021/10/15 10:25:20;;;;;;;9.15;7.03;;;;;;;12.56;nan;100777.91;5024932;28;20068;-83
2021/10/15 10:27:46;;;;;;;9.13;6.32;;;;;;;12.71;nan;100773.69;5026330;28;20065;-83
2021/10/15 10:30:11;;;;;;;10.73;6.85;;;;;;;12.63;nan;100774.50;5028442;28;20141;-83
2021/10/15 10:32:36;;;;;;;10.68;6.90;;;;;;;12.64;nan;100770.84;5023773;28;20129;-85
2021/10/15 10:35:24;;;;;;;8.70;6.40;;;;;;;12.74;nan;100776.03;5004558;28;20495;-83
2021/10/15 10:38:18;;;;;;;8.05;6.30;;;;;;;12.71;nan;100784.31;5024995;28;20510;-83
2021/10/15 10:40:59;;;;;;;13.00;7.00;;;;;;;12.71;nan;100781.66;5024341;28;20041;-84
2021/10/15 10:43:24;;;;;;;9.20;6.87;;;;;;;12.82;nan;100776.03;5008885;28;20107;-82
2021/10/15 10:46:08;;;;;;;8.43;6.32;;;;;;;13.07;nan;100776.13;5010218;28;20483;-84
2021/10/15 10:48:53;;;;;;;9.23;5.93;;;;;;;13.14;nan;100782.47;5029816;28;20507;-86
2021/10/15 10:51:30;;;;;;;11.20;6.85;;;;;;;13.34;nan;100780.38;5016191;28;20495;-84
2021/10/15 10:54:10;;;;;;;9.20;6.50;;;;;;;13.17;nan;100774.16;5034957;28;20048;-84
2021/10/15 10:56:39;;;;;;;10.18;6.65;;;;;;;13.25;nan;100776.00;5016786;28;20069;-85
2021/10/15 10:59:20;;;;;;;8.73;6.15;;;;;;;13.25;nan;100768.03;5017951;28;20044;-83
2021/10/15 11:02:02;;;;;;;8.18;5.93;;;;;;;13.33;nan;100776.88;5012480;28;20077;-84
2021/10/15 11:04:32;;;;;;;10.35;7.07;;;;;;;13.44;nan;100772.25;5010996;28;20041;-83
2021/10/15 11:07:08;;;;;;;11.43;7.00;;;;;;;13.46;nan;100773.75;5009784;28;20045;-85
2021/10/15 11:09:44;;;;;;;9.18;6.47;;;;;;;13.48;nan;100773.59;5027431;28;20559;-84
2021/10/15 11:12:31;;;;;;;10.10;5.88;;;;;;;13.51;nan;100774.06;5028443;28;20957;-83
2021/10/15 11:15:13;;;;;;;7.13;5.63;;;;;;;13.53;nan;100768.59;4997784;28;20029;-83
2021/10/15 11:17:42;;;;;;;10.93;5.93;;;;;;;13.55;nan;100754.16;5031916;28;20045;-84
2021/10/15 11:20:12;;;;;;;10.70;5.70;;;;;;;13.46;nan;100757.78;5035324;28;20057;-83
2021/10/15 11:22:40;;;;;;;10.13;6.20;;;;;;;13.76;nan;100760.81;5017354;28;20037;-84
2021/10/15 11:25:08;;;;;;;10.35;6.63;;;;;;;13.73;nan;100751.34;5017044;28;20528;-83
2021/10/15 11:27:34;;;;;;;10.40;6.30;;;;;;;13.97;nan;100749.66;5037678;28;20033;-85
2021/10/15 11:30:00;;;;;;;7.70;5.90;;;;;;;13.90;nan;100746.84;5015432;28;20068;-84
2021/10/15 11:32:31;;;;;;;7.10;4.90;;;;;;;14.02;nan;100740.19;5029604;28;20034;-85
2021/10/15 11:35:08;;;;;;;7.55;5.82;;;;;;;14.03;nan;100741.00;5016195;28;20046;-84
2021/10/15 11:37:45;;;;;;;8.65;5.47;;;;;;;14.10;nan;100734.00;5016700;28;20449;-83
2021/10/15 11:40:23;;;;;;;9.35;5.90;;;;;;;14.00;nan;100731.53;5028217;28;20037;-84
2021/10/15 11:42:51;;;;;;;7.85;5.47;;;;;;;14.19;nan;100740.13;5029792;28;20128;-85
2021/10/15 11:45:34;;;;;;;8.25;5.45;;;;;;;14.20;nan;100731.97;5033449;28;20044;-83
2021/10/15 11:48:06;;;;;;;8.65;5.60;;;;;;;14.26;nan;100737.63;5027448;28;20032;-86
2021/10/15 11:50:34;;;;;;;9.80;6.15;;;;;;;14.40;nan;100731.59;5029393;28;20037;-82
2021/10/15 11:53:00;;;;;;;9.40;5.93;;;;;;;14.40;nan;100734.28;5017606;28;20273;-86
2021/10/15 11:55:31;;;;;;;7.90;5.22;;;;;;;14.41;nan;100733.25;5035937;28;20119;-84
2021/10/15 11:58:21;;;;;;;8.55;4.70;;;;;;;14.51;nan;100722.41;5018217;28;20037;-84
2021/10/15 12:01:27;;;;;;;8.13;4.47;;;;;;;14.41;nan;100719.94;5016341;28;20049;-84